Time;durP1;ratioP1;P1;durP2;ratioP2;P2;SDS_P1;SDS_P2;PMS_P1;PMS_P2;Temp;Humidity;BMP_temperature;BMP_pressure;BME280_temperature;BME280_humidity;BME280_pressure;Samples;Min_cycle;Max_cycle;Signal;HPM_P1;HPM_P2
2022/05/17 00:01:57;;;;;;;11.13;3.50;;;;;;;7.31;80.72;98464.31;5008875;28;20068;-74
2022/05/17 00:04:23;;;;;;;9.35;3.10;;;;;;;7.30;80.79;98463.53;5007035;28;20054;-74
2022/05/17 00:06:50;;;;;;;17.60;7.68;;;;;;;7.32;81.06;98457.78;5007209;28;20050;-75
2022/05/17 00:09:18;;;;;;;15.20;6.30;;;;;;;7.34;81.29;98459.13;5008387;28;20398;-74
2022/05/17 00:11:45;;;;;;;15.30;7.07;;;;;;;7.34;81.51;98455.63;5009846;28;20095;-74
2022/05/17 00:14:12;;;;;;;13.15;5.32;;;;;;;7.38;81.59;98445.78;5008955;28;20074;-74
2022/05/17 00:16:38;;;;;;;12.93;5.05;;;;;;;7.37;81.97;98444.16;5022041;28;20085;-74
2022/05/17 00:19:05;;;;;;;15.73;6.47;;;;;;;7.38;82.50;98440.34;5010611;28;20073;-74
2022/05/17 00:21:31;;;;;;;26.02;11.07;;;;;;;7.36;82.93;98429.72;4987940;28;20050;-73
2022/05/17 00:23:57;;;;;;;8.50;3.25;;;;;;;7.27;82.88;98441.53;4999999;28;20221;-74
2022/05/17 00:26:25;;;;;;;27.48;6.68;;;;;;;7.19;83.70;98438.34;4988429;28;20038;-74
2022/05/17 00:28:51;;;;;;;19.52;6.10;;;;;;;7.14;84.07;98435.66;4987573;28;20118;-73
2022/05/17 00:31:18;;;;;;;12.48;4.35;;;;;;;7.07;84.50;98424.31;4985756;28;20050;-73
2022/05/17 00:33:44;;;;;;;8.90;2.78;;;;;;;7.06;84.95;98422.69;4986491;28;20141;-74
2022/05/17 00:36:10;;;;;;;19.98;7.50;;;;;;;7.04;85.43;98422.16;4987229;28;20046;-73
2022/05/17 00:38:36;;;;;;;18.05;6.13;;;;;;;7.08;86.04;98418.56;4984437;28;20112;-73
2022/05/17 00:41:02;;;;;;;24.33;8.73;;;;;;;7.07;85.96;98416.16;5001551;28;20054;-73
2022/05/17 00:44:42;;;;;;;15.60;5.68;;;;;;;7.05;86.15;98419.16;4985464;28;20080;-69
2022/05/17 00:46:22;;;;;;;28.48;11.85;;;;;;;7.04;86.61;98405.84;4987165;28;20259;-68
2022/05/17 00:48:50;;;;;;;17.38;5.03;;;;;;;7.10;86.91;98410.13;4985178;28;20510;-73
2022/05/17 00:51:17;;;;;;;9.52;3.17;;;;;;;7.06;86.75;98411.81;4984949;28;20521;-74
2022/05/17 00:53:43;;;;;;;11.30;4.43;;;;;;;6.99;86.95;98400.44;4984690;28;20054;-75
2022/05/17 00:56:12;;;;;;;28.77;11.93;;;;;;;6.99;87.32;98403.16;4986523;28;20055;-75
2022/05/17 00:58:44;;;;;;;10.10;2.85;;;;;;;7.01;87.13;98403.69;4985917;28;20445;-74
2022/05/17 01:01:12;;;;;;;10.10;3.72;;;;;;;6.88;87.13;98405.16;4985708;28;20108;-73
2022/05/17 01:03:46;;;;;;;22.73;6.82;;;;;;;6.82;87.78;98404.38;4983784;28;20081;-72
2022/05/17 01:06:13;;;;;;;39.38;14.50;;;;;;;6.85;87.99;98403.81;4984774;28;20055;-73
2022/05/17 01:08:39;;;;;;;22.88;8.80;;;;;;;6.86;88.09;98393.78;4999802;28;20117;-74
2022/05/17 01:11:05;;;;;;;28.38;12.73;;;;;;;6.91;88.22;98397.25;4985567;28;20472;-68
2022/05/17 01:16:17;;;;;;;17.40;5.45;;;;;;;6.97;88.04;98395.31;4987376;28;20074;-73
2022/05/17 01:18:43;;;;;;;;;;;;;;;6.99;88.01;98393.13;4985914;28;20133;-74
2022/05/17 01:21:12;;;;;;;13.05;3.47;;;;;;;7.01;87.62;98400.97;4987726;28;20037;-74
2022/05/17 01:23:41;;;;;;;48.50;19.13;;;;;;;7.06;87.77;98399.03;4999129;28;20054;-73
2022/05/17 01:26:11;;;;;;;32.25;12.77;;;;;;;7.13;87.79;98398.69;4986266;28;20108;-74
2022/05/17 01:28:37;;;;;;;16.88;4.72;;;;;;;7.17;87.30;98393.50;4987320;28;20058;-73
2022/05/17 01:31:04;;;;;;;14.13;5.97;;;;;;;7.12;87.01;98393.56;5000904;28;20054;-73
2022/05/17 01:33:32;;;;;;;22.38;8.65;;;;;;;7.10;86.88;98399.28;4999926;28;20050;-73
2022/05/17 01:35:59;;;;;;;23.17;9.18;;;;;;;7.12;87.43;98396.28;5000633;28;20045;-74
2022/05/17 01:38:27;;;;;;;38.25;13.13;;;;;;;7.12;87.46;98386.19;4999173;28;20093;-74
2022/05/17 01:40:54;;;;;;;43.33;15.85;;;;;;;7.16;87.57;98384.53;4984782;28;20046;-74
2022/05/17 01:43:20;;;;;;;18.45;7.93;;;;;;;7.19;87.64;98385.88;4985146;28;20078;-69
2022/05/17 01:45:46;;;;;;;10.30;3.22;;;;;;;7.22;87.59;98391.53;4986259;28;20054;-69
2022/05/17 01:48:13;;;;;;;48.33;19.42;;;;;;;7.20;87.71;98385.59;4985752;28;20042;-68
2022/05/17 01:50:39;;;;;;;22.55;9.68;;;;;;;7.29;87.84;98384.94;4988343;28;20065;-69
2022/05/17 01:53:05;;;;;;;34.20;15.27;;;;;;;7.29;87.76;98388.50;4984695;28;20050;-69
2022/05/17 01:55:33;;;;;;;26.83;9.35;;;;;;;7.31;87.86;98380.84;4983626;28;20065;-68
2022/05/17 01:57:58;;;;;;;;;;;;;;;7.30;87.87;98395.53;4986014;28;20548;-69
2022/05/17 02:00:25;;;;;;;20.00;9.10;;;;;;;7.29;87.23;98383.06;4999449;28;19953;-70
2022/05/17 02:02:52;;;;;;;21.48;7.57;;;;;;;7.32;87.12;98382.47;4985455;28;20080;-69
2022/05/17 02:05:19;;;;;;;56.15;25.33;;;;;;;7.37;86.75;98384.34;5001159;28;20086;-68
2022/05/17 02:07:45;;;;;;;37.80;16.02;;;;;;;7.44;86.73;98382.06;4981832;28;20137;-68
2022/05/17 02:10:12;;;;;;;29.45;14.75;;;;;;;7.48;86.74;98382.31;4980424;28;20596;-69
2022/05/17 02:12:39;;;;;;;23.80;9.45;;;;;;;7.50;86.47;98386.38;4984147;28;20121;-70
2022/05/17 02:15:07;;;;;;;8.82;3.88;;;;;;;7.51;86.43;98363.50;4982176;28;20054;-70
2022/05/17 02:17:35;;;;;;;;;;;;;;;7.46;86.55;98390.75;4983407;28;20499;-69
2022/05/17 02:20:02;;;;;;;6.90;2.75;;;;;;;7.37;86.64;98373.47;4984456;28;20352;-69
2022/05/17 02:22:29;;;;;;;21.52;9.90;;;;;;;7.34;86.94;98374.03;4982944;28;20112;-69
2022/05/17 02:24:55;;;;;;;14.13;6.80;;;;;;;7.31;87.39;98371.88;4999514;28;20069;-69
2022/05/17 02:27:21;;;;;;;19.67;8.95;;;;;;;7.32;87.73;98374.31;4986169;28;20078;-69
2022/05/17 02:29:48;;;;;;;11.88;5.38;;;;;;;7.34;87.67;98377.56;4981405;28;20054;-69
2022/05/17 02:32:14;;;;;;;22.45;6.38;;;;;;;7.40;87.49;98370.16;4982123;28;20066;-69
2022/05/17 02:34:41;;;;;;;6.13;2.42;;;;;;;7.38;87.19;98365.00;4982421;28;20050;-69
2022/05/17 02:37:07;;;;;;;8.75;2.63;;;;;;;7.42;87.11;98372.59;4999342;28;20446;-69
2022/05/17 02:39:34;;;;;;;6.90;2.35;;;;;;;7.40;86.49;98361.16;4984441;28;20043;-68
2022/05/17 02:42:00;;;;;;;24.30;12.37;;;;;;;7.40;86.73;98369.34;4982865;28;20061;-69
2022/05/17 02:44:27;;;;;;;25.85;13.75;;;;;;;7.43;86.64;98366.06;4983573;28;20133;-69
2022/05/17 02:46:56;;;;;;;13.85;6.97;;;;;;;7.47;86.62;98369.81;4980869;28;20054;-69
2022/05/17 02:49:23;;;;;;;8.23;2.33;;;;;;;7.52;86.51;98365.13;4996521;28;20053;-69
2022/05/17 02:51:49;;;;;;;13.80;6.22;;;;;;;7.58;86.14;98365.88;4998971;28;20058;-69
2022/05/17 02:54:15;;;;;;;21.63;11.40;;;;;;;7.69;85.75;98358.41;4982178;28;20497;-74
2022/05/17 02:56:41;;;;;;;15.57;8.60;;;;;;;7.75;85.33;98354.50;4982574;28;20046;-69
2022/05/17 02:59:07;;;;;;;8.40;3.78;;;;;;;7.87;84.90;98364.16;4982218;28;20038;-69
2022/05/17 03:01:33;;;;;;;8.32;4.22;;;;;;;7.92;84.31;98359.47;4981751;28;20073;-69
2022/05/17 03:04:01;;;;;;;8.63;3.90;;;;;;;7.97;83.73;98376.81;4998287;28;20432;-69
2022/05/17 03:06:26;;;;;;;;;;;;;;;7.92;82.83;98367.63;4983107;28;20054;-69
2022/05/17 03:08:52;;;;;;;12.13;6.03;;;;;;;7.90;82.82;98358.13;4983983;28;19926;-69
2022/05/17 03:11:18;;;;;;;8.40;3.60;;;;;;;7.91;83.09;98359.75;4984472;28;20078;-69
2022/05/17 03:13:44;;;;;;;10.15;4.68;;;;;;;7.93;82.89;98357.53;4983507;28;20545;-70
2022/05/17 03:16:10;;;;;;;10.73;4.53;;;;;;;7.96;82.87;98365.16;4982290;28;20046;-67
2022/05/17 03:18:39;;;;;;;8.25;3.55;;;;;;;7.95;82.74;98355.34;4998249;28;20499;-69
2022/05/17 03:21:07;;;;;;;7.60;2.55;;;;;;;7.92;82.80;98373.06;4981434;28;20042;-69
2022/05/17 03:23:33;;;;;;;3.63;1.55;;;;;;;7.95;82.93;98364.31;4996915;28;20046;-69
2022/05/17 03:25:59;;;;;;;12.85;6.30;;;;;;;7.97;83.27;98358.59;4997686;28;20069;-69
2022/05/17 03:28:25;;;;;;;16.35;8.73;;;;;;;8.01;83.46;98350.63;4984215;28;20129;-70
2022/05/17 03:30:51;;;;;;;8.52;3.00;;;;;;;7.94;82.81;98359.16;4983963;28;20096;-69
2022/05/17 03:33:17;;;;;;;11.70;6.10;;;;;;;7.91;83.46;98363.31;4980637;28;20479;-69
2022/05/17 03:35:43;;;;;;;8.18;3.58;;;;;;;7.89;83.10;98353.78;4982669;28;20039;-70
2022/05/17 03:38:10;;;;;;;3.25;1.50;;;;;;;7.84;83.11;98368.28;4985891;28;20149;-69
2022/05/17 03:40:36;;;;;;;13.85;7.28;;;;;;;7.75;83.44;98361.88;4984037;28;20065;-69
2022/05/17 03:43:02;;;;;;;6.57;2.85;;;;;;;7.70;84.00;98368.19;4983651;28;20081;-69
2022/05/17 03:45:28;;;;;;;6.00;2.17;;;;;;;7.70;84.60;98354.56;4985631;28;20089;-69
2022/05/17 03:47:55;;;;;;;8.27;4.00;;;;;;;7.69;83.95;98372.00;4982928;28;20054;-69
2022/05/17 03:50:21;;;;;;;11.40;5.53;;;;;;;7.72;83.89;98357.81;4987178;28;20046;-69
2022/05/17 03:52:47;;;;;;;17.65;10.40;;;;;;;7.75;83.73;98365.38;4999722;28;20313;-69
2022/05/17 03:55:16;;;;;;;12.40;6.20;;;;;;;7.79;84.01;98365.63;4984567;28;20506;-69
2022/05/17 03:57:42;;;;;;;12.75;6.38;;;;;;;7.87;83.85;98356.00;4999145;28;20046;-69
2022/05/17 04:00:10;;;;;;;6.32;2.30;;;;;;;7.88;83.24;98363.88;4998015;28;20056;-69
2022/05/17 04:02:39;;;;;;;11.63;4.43;;;;;;;7.87;83.30;98361.44;4984896;28;20084;-69
2022/05/17 04:05:06;;;;;;;17.20;9.45;;;;;;;7.86;83.54;98363.34;4987934;28;20057;-69
2022/05/17 04:07:33;;;;;;;14.93;5.00;;;;;;;7.88;83.79;98361.16;4987296;28;20129;-69
2022/05/17 04:09:59;;;;;;;7.53;2.60;;;;;;;7.89;83.75;98360.06;4987019;28;20058;-69
2022/05/17 04:12:27;;;;;;;27.55;15.15;;;;;;;7.95;83.68;98368.94;4984731;28;20049;-69
2022/05/17 04:14:53;;;;;;;32.65;18.90;;;;;;;7.99;83.71;98352.84;4996177;28;20050;-69
2022/05/17 04:17:19;;;;;;;15.73;8.47;;;;;;;8.01;83.55;98373.25;4983264;28;20403;-69
2022/05/17 04:19:45;;;;;;;8.53;3.33;;;;;;;8.01;83.29;98359.63;4640439;28;10001004;-69
2022/05/17 04:22:11;;;;;;;6.85;3.03;;;;;;;8.05;83.19;98363.38;4985964;28;20061;-69
2022/05/17 04:24:38;;;;;;;16.73;6.03;;;;;;;8.05;83.20;98368.81;5001892;28;20050;-68
2022/05/17 04:27:05;;;;;;;25.10;13.63;;;;;;;8.05;82.96;98355.22;5002907;28;20050;-69
2022/05/17 04:29:32;;;;;;;7.18;2.55;;;;;;;8.12;82.90;98345.84;4988033;28;20049;-68
2022/05/17 04:31:58;;;;;;;18.33;10.00;;;;;;;8.16;82.64;98353.16;4999091;28;20057;-69
2022/05/17 04:34:25;;;;;;;15.00;6.85;;;;;;;8.22;82.54;98357.44;5001308;28;20057;-70
2022/05/17 04:36:51;;;;;;;5.00;2.03;;;;;;;8.29;81.65;98359.78;5003936;28;20050;-68
2022/05/17 04:39:18;;;;;;;9.43;3.77;;;;;;;8.28;81.81;98350.00;5001465;28;20073;-69
2022/05/17 04:41:45;;;;;;;4.43;2.13;;;;;;;8.37;81.31;98355.59;5002582;28;20057;-69
2022/05/17 04:44:11;;;;;;;15.40;6.47;;;;;;;8.40;81.20;98352.28;5003291;28;20038;-69
2022/05/17 04:46:38;;;;;;;9.60;2.95;;;;;;;8.39;81.13;98342.47;5002288;28;20053;-69
2022/05/17 04:49:04;;;;;;;8.25;2.97;;;;;;;8.36;80.81;98362.16;5002524;28;20137;-69
2022/05/17 04:51:32;;;;;;;6.20;2.60;;;;;;;8.40;80.76;98346.81;5001420;28;20042;-69
2022/05/17 04:53:59;;;;;;;20.23;5.75;;;;;;;8.41;81.00;98355.78;5000516;28;20522;-70
2022/05/17 04:56:25;;;;;;;14.55;6.47;;;;;;;8.41;80.73;98351.16;5002862;28;20050;-70
2022/05/17 04:58:51;;;;;;;20.75;9.50;;;;;;;8.44;80.97;98347.84;5004282;28;20050;-69
2022/05/17 05:01:17;;;;;;;6.53;2.60;;;;;;;8.55;80.84;98353.16;5001834;28;20046;-69
2022/05/17 05:03:45;;;;;;;17.90;7.18;;;;;;;8.57;80.72;98362.66;4998085;28;20046;-68
2022/05/17 05:06:11;;;;;;;16.83;8.13;;;;;;;8.58;80.75;98358.81;5006093;28;20041;-69
2022/05/17 05:08:37;;;;;;;9.05;3.42;;;;;;;8.58;80.88;98361.53;5007305;28;20056;-69
2022/05/17 05:11:03;;;;;;;23.63;9.85;;;;;;;8.52;80.93;98354.56;5006422;28;20046;-69
2022/05/17 05:13:30;;;;;;;7.55;2.90;;;;;;;8.49;80.82;98366.81;5008127;28;20045;-69
2022/05/17 05:15:56;;;;;;;10.52;4.70;;;;;;;8.43;80.99;98370.75;5004359;28;20092;-70
2022/05/17 05:18:22;;;;;;;19.23;7.72;;;;;;;8.40;81.20;98371.34;5004697;28;20053;-69
2022/05/17 05:20:50;;;;;;;32.22;16.98;;;;;;;8.44;81.67;98371.56;5004584;28;20464;-69
2022/05/17 05:23:16;;;;;;;;;;;;;;;8.49;82.29;98382.38;5005549;28;20081;-69
2022/05/17 05:25:42;;;;;;;14.57;6.22;;;;;;;8.51;82.29;98366.56;5006178;28;19925;-69
2022/05/17 05:28:09;;;;;;;17.33;8.18;;;;;;;8.47;82.07;98374.47;4988818;28;20042;-70
2022/05/17 05:30:36;;;;;;;17.80;7.18;;;;;;;8.50;82.40;98376.63;5006132;28;20042;-70
2022/05/17 05:33:03;;;;;;;20.30;6.47;;;;;;;8.51;82.95;98377.47;5007416;28;20042;-70
2022/05/17 05:35:29;;;;;;;39.38;16.85;;;;;;;8.54;83.04;98376.88;5002380;28;20069;-70
2022/05/17 05:37:57;;;;;;;23.73;8.75;;;;;;;8.52;82.92;98384.53;5002922;28;20417;-70
2022/05/17 05:40:23;;;;;;;17.55;7.50;;;;;;;8.56;82.62;98379.31;4986964;28;20425;-70
2022/05/17 05:42:50;;;;;;;25.88;12.20;;;;;;;8.61;82.48;98381.94;5005244;28;20058;-70
2022/05/17 05:45:18;;;;;;;15.52;4.97;;;;;;;8.69;82.49;98380.47;5004264;28;20053;-70
2022/05/17 05:47:44;;;;;;;;;;;;;;;8.75;82.46;98379.28;5006789;28;20050;-70
2022/05/17 05:50:11;;;;;;;18.35;5.05;;;;;;;8.79;82.12;98377.56;5005394;28;19925;-70
2022/05/17 05:52:37;;;;;;;37.28;17.25;;;;;;;8.79;82.25;98383.81;5006172;28;20046;-70
2022/05/17 05:55:07;;;;;;;19.50;7.47;;;;;;;8.76;82.41;98383.63;5007159;28;20132;-70
2022/05/17 05:57:33;;;;;;;11.77;4.15;;;;;;;8.69;82.09;98388.63;5006308;28;20054;-70
2022/05/17 05:59:59;;;;;;;22.15;11.32;;;;;;;8.62;82.25;98386.28;5004543;28;20081;-70
2022/05/17 06:02:25;;;;;;;12.05;4.80;;;;;;;8.62;81.97;98392.56;5007870;28;20347;-70
2022/05/17 06:04:52;;;;;;;31.20;14.23;;;;;;;8.66;81.63;98392.75;5022176;28;20569;-70
2022/05/17 06:07:18;;;;;;;29.67;11.95;;;;;;;8.77;81.71;98396.16;5004428;28;20049;-70
2022/05/17 06:09:45;;;;;;;16.65;7.50;;;;;;;8.84;81.55;98395.78;5006878;28;20130;-70
2022/05/17 06:12:13;;;;;;;44.75;16.15;;;;;;;8.97;81.64;98394.19;5006208;28;20539;-70
2022/05/17 06:14:39;;;;;;;37.17;11.65;;;;;;;9.00;81.37;98391.69;5000085;28;20145;-70
2022/05/17 06:17:05;;;;;;;15.80;6.40;;;;;;;8.97;80.91;98392.25;5013859;28;20054;-74
2022/05/17 06:19:33;;;;;;;24.80;11.77;;;;;;;8.93;80.66;98389.34;5003925;28;20054;-74
2022/05/17 06:21:59;;;;;;;21.00;6.10;;;;;;;8.97;80.65;98402.38;5004636;28;20160;-74
2022/05/17 06:24:27;;;;;;;20.27;7.50;;;;;;;9.02;80.58;98397.63;5021258;28;20049;-75
2022/05/17 06:26:56;;;;;;;23.15;7.70;;;;;;;9.13;80.37;98394.72;5005177;28;20096;-74
2022/05/17 06:29:24;;;;;;;43.97;18.02;;;;;;;9.15;80.09;98389.81;5005889;28;20081;-74
2022/05/17 06:31:50;;;;;;;26.27;6.60;;;;;;;9.13;79.84;98392.00;4999914;28;20049;-74
2022/05/17 06:34:16;;;;;;;20.02;6.72;;;;;;;9.03;79.48;98391.06;5004725;28;20054;-74
2022/05/17 06:36:42;;;;;;;16.25;4.78;;;;;;;8.93;79.70;98385.78;5006719;28;20461;-73
2022/05/17 06:39:09;;;;;;;19.95;7.45;;;;;;;8.99;79.63;98391.97;5004691;28;20049;-74
2022/05/17 06:41:36;;;;;;;20.40;8.50;;;;;;;8.99;79.63;98390.06;5003843;28;20549;-73
2022/05/17 06:44:03;;;;;;;16.02;6.25;;;;;;;9.01;79.47;98397.94;5002047;28;20067;-74
2022/05/17 06:46:30;;;;;;;18.00;6.18;;;;;;;9.02;79.45;98394.91;5003792;28;20535;-73
2022/05/17 06:48:57;;;;;;;20.45;6.75;;;;;;;9.03;79.42;98401.97;5004419;28;20046;-73
2022/05/17 06:51:24;;;;;;;23.65;9.32;;;;;;;9.07;79.62;98397.53;5020265;28;20045;-74
2022/05/17 06:53:50;;;;;;;25.38;10.20;;;;;;;9.09;79.61;98394.53;5005364;28;20073;-74
2022/05/17 06:56:16;;;;;;;17.67;7.25;;;;;;;9.13;79.74;98401.00;5005422;28;20484;-74
2022/05/17 06:58:42;;;;;;;17.10;7.25;;;;;;;9.13;79.41;98400.16;5005558;28;20053;-74
2022/05/17 07:01:08;;;;;;;18.50;6.60;;;;;;;9.14;78.86;98397.16;5006456;28;20057;-74
2022/05/17 07:03:36;;;;;;;15.50;5.88;;;;;;;9.13;78.92;98400.16;4999892;28;20424;-74
2022/05/17 07:06:04;;;;;;;18.38;7.28;;;;;;;9.23;78.52;98400.00;5002615;28;20049;-73
2022/05/17 07:08:30;;;;;;;19.33;8.32;;;;;;;9.24;78.66;98419.91;5002410;28;20042;-69
2022/05/17 07:14:00;;;;;;;15.35;6.40;;;;;;;9.16;78.63;98415.97;4924713;29;20151;-69
2022/05/17 07:16:26;;;;;;;23.15;7.93;;;;;;;9.05;78.97;98421.56;4923696;29;20544;-69
2022/05/17 07:18:54;;;;;;;20.92;7.22;;;;;;;9.06;79.26;98420.47;4925211;29;20697;-69
2022/05/17 07:21:20;;;;;;;25.80;10.88;;;;;;;9.03;79.40;98423.78;4923934;29;20146;-69
2022/05/17 07:23:46;;;;;;;20.70;8.88;;;;;;;9.04;79.67;98424.59;4926679;29;20051;-69
2022/05/17 07:26:13;;;;;;;18.10;7.83;;;;;;;9.11;80.05;98424.19;4924349;29;20596;-71
2022/05/17 07:28:41;;;;;;;19.55;7.53;;;;;;;9.19;80.06;98421.59;4922222;29;20058;-69
2022/05/17 07:31:07;;;;;;;18.85;6.43;;;;;;;9.24;79.52;98430.81;4920234;29;20055;-69
2022/05/17 07:33:36;;;;;;;17.25;7.78;;;;;;;9.30;79.17;98432.34;4924410;29;20047;-70
2022/05/17 07:36:04;;;;;;;25.63;9.60;;;;;;;9.37;78.92;98432.78;4927502;29;20486;-69
2022/05/17 07:38:31;;;;;;;19.48;8.35;;;;;;;9.40;78.90;98437.63;4927021;29;20307;-69
2022/05/17 07:40:57;;;;;;;21.85;9.55;;;;;;;9.50;78.45;98442.09;4929655;29;20059;-70
2022/05/17 07:43:23;;;;;;;20.33;8.43;;;;;;;9.56;77.93;98427.22;4930330;29;20423;-69
2022/05/17 07:45:51;;;;;;;18.65;8.45;;;;;;;9.51;77.81;98433.59;5001964;28;20104;-69
2022/05/17 07:48:19;;;;;;;19.20;8.40;;;;;;;9.46;77.70;98435.63;5008161;28;20144;-69
2022/05/17 07:50:46;;;;;;;17.63;8.77;;;;;;;9.45;77.94;98428.53;5008491;28;20521;-69
2022/05/17 07:53:15;;;;;;;23.95;9.70;;;;;;;9.38;77.72;98422.66;5006978;28;20129;-69
2022/05/17 07:55:43;;;;;;;22.35;9.85;;;;;;;9.45;77.47;98434.00;5003006;28;20517;-69
2022/05/17 07:58:09;;;;;;;25.80;9.32;;;;;;;9.50;77.34;98429.22;4990960;28;20057;-69
2022/05/17 08:00:36;;;;;;;24.58;10.93;;;;;;;9.66;77.28;98431.69;5009095;28;20053;-69
2022/05/17 08:03:04;;;;;;;23.10;10.32;;;;;;;10.09;76.28;98438.78;5017829;28;20056;-69
2022/05/17 08:05:31;;;;;;;25.27;10.27;;;;;;;10.58;74.64;98428.16;4956853;28;20193;-70
2022/05/17 08:07:59;;;;;;;19.63;9.70;;;;;;;10.92;73.19;98424.09;4965590;28;20070;-69
2022/05/17 08:10:27;;;;;;;21.95;9.23;;;;;;;11.08;72.41;98423.72;4993992;28;20495;-70
2022/05/17 08:12:55;;;;;;;20.23;9.55;;;;;;;11.15;71.72;98432.31;4988149;28;20053;-69
2022/05/17 08:15:23;;;;;;;22.60;9.43;;;;;;;11.14;71.22;98429.88;4970891;28;20054;-69
2022/05/17 08:17:49;;;;;;;;;;;;;;;10.94;71.22;98429.25;5000407;28;20065;-69
2022/05/17 08:20:15;;;;;;;19.33;9.55;;;;;;;10.74;72.05;98434.09;5008522;28;20320;-69
2022/05/17 08:22:43;;;;;;;20.25;9.50;;;;;;;10.60;72.47;98427.88;5006931;28;20050;-69
2022/05/17 08:27:58;;;;;;;26.65;10.70;;;;;;;10.52;73.13;98439.53;5006498;28;20172;-74
2022/05/17 08:30:26;;;;;;;26.50;11.25;;;;;;;10.55;73.09;98439.72;5007071;28;20413;-74
2022/05/17 08:35:43;;;;;;;25.83;10.95;;;;;;;10.40;73.30;98456.44;4998815;28;20092;-73
2022/05/17 08:38:11;;;;;;;27.88;11.02;;;;;;;10.26;74.07;98442.81;5005658;28;20066;-74
2022/05/17 08:40:57;;;;;;;25.35;9.77;;;;;;;10.18;74.49;98450.59;5005975;28;20132;-74
2022/05/17 08:43:30;;;;;;;23.80;9.23;;;;;;;10.14;74.52;98449.59;5005944;28;20453;-74
2022/05/17 08:46:22;;;;;;;23.80;9.57;;;;;;;10.12;74.24;98451.00;5006716;28;20093;-74
2022/05/17 08:48:52;;;;;;;24.38;9.38;;;;;;;10.01;74.26;98448.50;4998738;28;20050;-74
2022/05/17 08:51:28;;;;;;;24.52;9.75;;;;;;;9.96;74.42;98450.50;5008439;28;20050;-74
2022/05/17 08:53:54;;;;;;;20.73;8.88;;;;;;;9.91;74.49;98446.78;5004846;28;20053;-69
2022/05/17 08:56:20;;;;;;;19.80;8.98;;;;;;;9.89;75.00;98448.19;5008040;28;20124;-69
2022/05/17 08:58:52;;;;;;;28.95;9.32;;;;;;;9.94;75.42;98453.53;5022819;28;20052;-73
2022/05/17 09:01:24;;;;;;;19.13;9.27;;;;;;;10.05;75.31;98448.66;4972266;28;20465;-74
2022/05/17 09:04:06;;;;;;;25.23;10.23;;;;;;;10.40;74.93;98440.84;5005470;28;20064;-74
2022/05/17 09:06:41;;;;;;;24.38;9.52;;;;;;;10.70;73.30;98446.78;5009408;28;20049;-74
2022/05/17 09:09:14;;;;;;;26.58;7.90;;;;;;;11.12;72.11;98443.06;5005628;28;20038;-74
2022/05/17 09:11:46;;;;;;;17.88;8.50;;;;;;;11.32;70.77;98439.00;5007347;28;20088;-74
2022/05/17 09:14:17;;;;;;;19.33;9.02;;;;;;;11.41;69.86;98450.81;5005308;28;20096;-74
2022/05/17 09:16:45;;;;;;;17.70;9.07;;;;;;;11.66;69.22;98451.25;4655232;28;9999905;-74
2022/05/17 09:19:12;;;;;;;17.38;8.68;;;;;;;11.72;68.91;98451.91;4989921;28;20512;-75
2022/05/17 09:21:40;;;;;;;21.83;9.82;;;;;;;11.53;69.52;98449.41;4999400;28;20046;-74
2022/05/17 09:24:12;;;;;;;20.45;9.80;;;;;;;11.29;70.21;98453.31;5004845;28;20552;-74
2022/05/17 09:26:40;;;;;;;30.45;10.73;;;;;;;11.03;70.68;98459.41;5000674;28;20045;-74
2022/05/17 09:29:15;;;;;;;22.85;10.57;;;;;;;10.78;72.00;98446.03;5002407;28;20046;-74
2022/05/17 09:31:51;;;;;;;23.85;11.40;;;;;;;10.61;72.87;98448.63;5002795;28;20049;-74
2022/05/17 09:34:26;;;;;;;28.73;12.20;;;;;;;10.45;73.58;98448.97;4985549;28;20152;-74
2022/05/17 09:36:55;;;;;;;25.90;12.23;;;;;;;10.30;73.41;98463.75;5011215;28;20319;-74
2022/05/17 09:39:23;;;;;;;29.20;12.38;;;;;;;10.14;73.88;98456.97;4999188;28;20046;-69
2022/05/17 09:41:50;;;;;;;27.90;13.35;;;;;;;10.12;74.18;98467.38;5000375;28;20129;-69
2022/05/17 09:44:22;;;;;;;27.97;13.23;;;;;;;10.09;74.60;98468.81;5001503;28;20657;-69
2022/05/17 09:46:56;;;;;;;28.17;12.25;;;;;;;10.06;74.33;98470.22;4997652;28;20447;-70
2022/05/17 09:52:32;;;;;;;26.33;12.48;;;;;;;9.85;74.78;98486.19;5000648;28;20057;-69
2022/05/17 09:55:21;;;;;;;26.67;13.63;;;;;;;9.81;75.71;98465.25;4998980;28;20046;-69
2022/05/17 09:57:57;;;;;;;30.20;13.60;;;;;;;9.76;75.94;98472.44;5001027;28;20448;-74
2022/05/17 10:00:26;;;;;;;34.95;14.05;;;;;;;9.74;76.09;98476.56;5000981;28;20513;-74
2022/05/17 10:02:57;;;;;;;29.80;14.40;;;;;;;9.72;76.08;98482.34;5001157;28;20498;-74
2022/05/17 10:05:26;;;;;;;28.25;13.27;;;;;;;9.79;75.96;98469.09;5000479;28;20065;-74
2022/05/17 10:07:58;;;;;;;24.08;12.95;;;;;;;10.06;75.47;98475.69;4998476;28;20042;-74
2022/05/17 10:10:35;;;;;;;34.67;14.50;;;;;;;10.18;74.90;98483.38;4998497;28;20270;-74
2022/05/17 10:13:10;;;;;;;26.63;12.60;;;;;;;10.27;74.77;98477.19;5000542;28;20060;-74
2022/05/17 10:15:41;;;;;;;27.33;13.10;;;;;;;10.16;74.22;98471.94;5000627;28;20048;-74
2022/05/17 10:18:20;;;;;;;23.48;12.13;;;;;;;10.12;74.11;98479.13;5002394;28;20437;-74
2022/05/17 10:20:50;;;;;;;29.90;13.65;;;;;;;10.16;74.42;98482.84;5000192;28;20387;-74
2022/05/17 10:23:26;;;;;;;37.60;13.60;;;;;;;10.10;74.40;98472.34;5001378;28;20155;-74
2022/05/17 10:25:57;;;;;;;25.95;13.93;;;;;;;10.05;74.79;98487.72;5002626;28;20065;-74
2022/05/17 10:28:34;;;;;;;31.60;15.18;;;;;;;9.99;75.64;98486.22;5000897;28;20056;-75
2022/05/17 10:31:11;;;;;;;33.83;16.02;;;;;;;9.92;75.75;98483.06;4997644;28;20414;-74
2022/05/17 10:33:57;;;;;;;32.55;15.20;;;;;;;9.88;75.96;98482.84;5001793;28;20054;-75
2022/05/17 10:36:30;;;;;;;26.35;13.25;;;;;;;10.00;75.86;98484.28;4984429;28;20153;-69
2022/05/17 10:39:04;;;;;;;32.45;13.90;;;;;;;10.16;75.45;98484.81;5002007;28;20140;-69
2022/05/17 10:41:30;;;;;;;27.52;13.82;;;;;;;10.22;74.74;98489.03;5002124;28;20065;-69
2022/05/17 10:43:57;;;;;;;27.30;13.32;;;;;;;10.15;74.75;98481.25;5000672;28;20172;-69
2022/05/17 10:46:29;;;;;;;30.95;15.23;;;;;;;10.02;75.21;98487.50;4999809;28;20048;-69
2022/05/17 10:49:10;;;;;;;32.20;15.27;;;;;;;10.01;75.91;98494.91;5002255;28;20090;-69
2022/05/17 10:51:47;;;;;;;33.10;15.02;;;;;;;10.00;75.55;98490.56;5001707;28;20045;-69
2022/05/17 10:54:29;;;;;;;32.72;14.52;;;;;;;9.92;75.84;98502.19;4995143;28;20408;-70
2022/05/17 10:57:02;;;;;;;33.67;14.43;;;;;;;9.85;76.08;98496.31;4991321;28;20452;-69
2022/05/17 10:59:38;;;;;;;34.78;15.25;;;;;;;9.84;76.50;98502.91;5009713;28;20050;-70
2022/05/17 11:02:20;;;;;;;28.85;11.80;;;;;;;9.79;76.44;98495.59;4999654;28;20548;-75
2022/05/17 11:05:07;;;;;;;37.15;14.50;;;;;;;9.79;76.51;98493.66;4995585;28;20061;-74
2022/05/17 11:07:53;;;;;;;32.28;15.68;;;;;;;9.86;76.18;98495.22;4984019;28;20421;-74
2022/05/17 11:10:31;;;;;;;28.25;14.90;;;;;;;9.93;76.06;98492.88;4996765;28;20173;-74
2022/05/17 11:13:02;;;;;;;;;;;;;;;9.92;75.71;98502.19;4987507;28;20054;-74
2022/05/17 11:15:41;;;;;;;27.25;13.23;;;;;;;9.95;75.37;98500.78;4988772;28;20405;-74
2022/05/17 11:18:16;;;;;;;25.85;12.35;;;;;;;9.94;75.29;98497.22;5019710;28;20050;-74
2022/05/17 11:20:52;;;;;;;25.88;12.82;;;;;;;9.95;75.40;98498.84;5008817;28;20283;-74
2022/05/17 11:23:42;;;;;;;29.77;13.57;;;;;;;9.93;75.24;98501.88;5002213;28;20061;-74
2022/05/17 11:26:32;;;;;;;27.30;13.23;;;;;;;9.96;75.46;98507.84;5009950;28;20042;-74
2022/05/17 11:29:10;;;;;;;34.88;12.85;;;;;;;9.97;75.42;98493.09;5011537;28;20050;-74
2022/05/17 11:31:50;;;;;;;28.70;12.85;;;;;;;10.02;75.02;98499.25;5010551;28;20046;-74
2022/05/17 11:34:32;;;;;;;26.85;12.40;;;;;;;10.08;74.86;98500.78;4992127;28;20545;-74
2022/05/17 11:37:01;;;;;;;29.00;12.52;;;;;;;10.11;74.43;98501.28;4991539;28;20077;-74
2022/05/17 11:39:47;;;;;;;27.35;12.63;;;;;;;10.13;74.08;98497.13;4990318;28;20050;-74
2022/05/17 11:42:28;;;;;;;24.47;11.57;;;;;;;10.12;74.06;98505.63;4988912;28;20057;-74
2022/05/17 11:44:55;;;;;;;23.15;10.35;;;;;;;10.08;73.76;98500.78;4990501;28;20304;-74
2022/05/17 11:47:30;;;;;;;23.70;11.82;;;;;;;10.09;73.76;98507.06;5006265;28;20559;-74
2022/05/17 11:50:22;;;;;;;24.67;12.05;;;;;;;10.13;73.76;98501.78;5008211;28;20144;-74
2022/05/17 11:52:55;;;;;;;28.60;11.40;;;;;;;10.39;73.32;98506.72;5003203;28;20088;-69
2022/05/17 11:55:28;;;;;;;22.83;11.05;;;;;;;10.68;72.30;98498.19;5010630;28;20462;-69